sensor_id;sensor_type;location;lat;lon;timestamp;temperature;humidity
83146;DHT22;73037;51.110;4.706;2024-01-11T00:01:58;-3.00;62.10
83146;DHT22;73037;51.110;4.706;2024-01-11T00:04:24;-3.10;62.00
83146;DHT22;73037;51.110;4.706;2024-01-11T00:06:50;-3.10;62.30
83146;DHT22;73037;51.110;4.706;2024-01-11T00:09:16;-3.20;62.40
83146;DHT22;73037;51.110;4.706;2024-01-11T00:11:42;-3.10;61.80
83146;DHT22;73037;51.110;4.706;2024-01-11T00:14:08;-3.10;62.40
83146;DHT22;73037;51.110;4.706;2024-01-11T00:16:34;-3.10;61.80
83146;DHT22;73037;51.110;4.706;2024-01-11T00:19:00;-3.10;62.60
83146;DHT22;73037;51.110;4.706;2024-01-11T00:21:25;-3.20;62.70
83146;DHT22;73037;51.110;4.706;2024-01-11T00:23:51;-3.20;62.70
83146;DHT22;73037;51.110;4.706;2024-01-11T00:26:17;-3.20;62.80
83146;DHT22;73037;51.110;4.706;2024-01-11T00:28:42;-3.20;63.10
83146;DHT22;73037;51.110;4.706;2024-01-11T00:31:08;-3.20;62.90
83146;DHT22;73037;51.110;4.706;2024-01-11T00:33:34;-3.20;63.60
83146;DHT22;73037;51.110;4.706;2024-01-11T00:35:59;-3.20;63.10
83146;DHT22;73037;51.110;4.706;2024-01-11T00:38:25;-3.20;63.10
83146;DHT22;73037;51.110;4.706;2024-01-11T00:40:50;-3.20;63.20
83146;DHT22;73037;51.110;4.706;2024-01-11T00:43:16;-3.30;63.40
83146;DHT22;73037;51.110;4.706;2024-01-11T00:45:42;-3.30;63.30
83146;DHT22;73037;51.110;4.706;2024-01-11T00:48:07;-3.30;63.70
83146;DHT22;73037;51.110;4.706;2024-01-11T00:50:33;-3.20;63.20
83146;DHT22;73037;51.110;4.706;2024-01-11T00:52:59;-3.20;63.00
83146;DHT22;73037;51.110;4.706;2024-01-11T00:55:26;-3.20;62.70
83146;DHT22;73037;51.110;4.706;2024-01-11T00:57:52;-3.20;63.20
83146;DHT22;73037;51.110;4.706;2024-01-11T01:00:18;-3.20;63.10
83146;DHT22;73037;51.110;4.706;2024-01-11T01:02:44;-3.20;62.60
83146;DHT22;73037;51.110;4.706;2024-01-11T01:05:10;-3.10;62.70
83146;DHT22;73037;51.110;4.706;2024-01-11T01:07:35;-3.10;62.90
83146;DHT22;73037;51.110;4.706;2024-01-11T01:10:01;-3.20;63.10
83146;DHT22;73037;51.110;4.706;2024-01-11T01:12:27;-3.20;63.10
83146;DHT22;73037;51.110;4.706;2024-01-11T01:14:54;-3.20;63.20
83146;DHT22;73037;51.110;4.706;2024-01-11T01:17:22;-3.30;63.40
83146;DHT22;73037;51.110;4.706;2024-01-11T01:19:47;-3.40;63.60
83146;DHT22;73037;51.110;4.706;2024-01-11T01:22:13;-3.40;63.80
83146;DHT22;73037;51.110;4.706;2024-01-11T01:24:39;-3.40;64.00
83146;DHT22;73037;51.110;4.706;2024-01-11T01:27:04;-3.40;63.70
83146;DHT22;73037;51.110;4.706;2024-01-11T01:29:30;-3.40;63.80
83146;DHT22;73037;51.110;4.706;2024-01-11T01:31:56;-3.40;63.50
83146;DHT22;73037;51.110;4.706;2024-01-11T01:34:21;-3.30;63.30
83146;DHT22;73037;51.110;4.706;2024-01-11T01:36:47;-3.20;63.70
83146;DHT22;73037;51.110;4.706;2024-01-11T01:39:13;-3.20;63.20
83146;DHT22;73037;51.110;4.706;2024-01-11T01:41:38;-3.20;63.60
83146;DHT22;73037;51.110;4.706;2024-01-11T01:44:04;-3.30;63.40
83146;DHT22;73037;51.110;4.706;2024-01-11T01:46:30;-3.20;63.40
83146;DHT22;73037;51.110;4.706;2024-01-11T01:48:58;-3.20;63.40
83146;DHT22;73037;51.110;4.706;2024-01-11T01:51:25;-3.20;63.70
83146;DHT22;73037;51.110;4.706;2024-01-11T01:53:53;-3.40;63.80
83146;DHT22;73037;51.110;4.706;2024-01-11T01:56:20;-3.50;64.10
83146;DHT22;73037;51.110;4.706;2024-01-11T01:58:46;-3.60;64.60
83146;DHT22;73037;51.110;4.706;2024-01-11T02:01:12;-3.80;64.90
83146;DHT22;73037;51.110;4.706;2024-01-11T02:03:38;-3.80;65.30
83146;DHT22;73037;51.110;4.706;2024-01-11T02:06:06;-3.80;64.90
83146;DHT22;73037;51.110;4.706;2024-01-11T02:08:32;-3.80;65.10
83146;DHT22;73037;51.110;4.706;2024-01-11T02:10:59;-3.60;65.00
83146;DHT22;73037;51.110;4.706;2024-01-11T02:13:25;-3.60;64.90
83146;DHT22;73037;51.110;4.706;2024-01-11T02:15:51;-3.60;65.00
83146;DHT22;73037;51.110;4.706;2024-01-11T02:18:17;-3.60;64.90
83146;DHT22;73037;51.110;4.706;2024-01-11T02:20:43;-3.60;64.60
83146;DHT22;73037;51.110;4.706;2024-01-11T02:23:14;-3.60;65.00
83146;DHT22;73037;51.110;4.706;2024-01-11T02:25:42;-3.60;65.00
83146;DHT22;73037;51.110;4.706;2024-01-11T02:28:08;-3.80;65.30
83146;DHT22;73037;51.110;4.706;2024-01-11T02:30:34;-3.80;65.50
83146;DHT22;73037;51.110;4.706;2024-01-11T02:33:00;-3.90;65.40
83146;DHT22;73037;51.110;4.706;2024-01-11T02:35:27;-4.00;65.70
83146;DHT22;73037;51.110;4.706;2024-01-11T02:37:54;-4.00;65.90
83146;DHT22;73037;51.110;4.706;2024-01-11T02:40:20;-3.90;66.10
83146;DHT22;73037;51.110;4.706;2024-01-11T02:42:46;-4.00;65.70
83146;DHT22;73037;51.110;4.706;2024-01-11T02:45:12;-4.00;65.70
83146;DHT22;73037;51.110;4.706;2024-01-11T02:47:38;-4.00;65.90
83146;DHT22;73037;51.110;4.706;2024-01-11T02:50:05;-4.00;65.90
83146;DHT22;73037;51.110;4.706;2024-01-11T02:52:31;-4.00;66.50
83146;DHT22;73037;51.110;4.706;2024-01-11T02:54:57;-4.10;65.90
83146;DHT22;73037;51.110;4.706;2024-01-11T02:57:22;-4.20;66.50
83146;DHT22;73037;51.110;4.706;2024-01-11T02:59:49;-4.20;67.10
83146;DHT22;73037;51.110;4.706;2024-01-11T03:02:15;-4.30;66.80
83146;DHT22;73037;51.110;4.706;2024-01-11T03:04:41;-4.30;66.90
83146;DHT22;73037;51.110;4.706;2024-01-11T03:07:06;-4.30;66.90
83146;DHT22;73037;51.110;4.706;2024-01-11T03:09:32;-4.30;66.90
83146;DHT22;73037;51.110;4.706;2024-01-11T03:11:59;-4.30;67.80
83146;DHT22;73037;51.110;4.706;2024-01-11T03:14:25;-4.30;67.50
83146;DHT22;73037;51.110;4.706;2024-01-11T03:16:51;-4.30;68.00
83146;DHT22;73037;51.110;4.706;2024-01-11T03:19:16;-4.30;67.60
83146;DHT22;73037;51.110;4.706;2024-01-11T03:21:43;-4.40;67.80
83146;DHT22;73037;51.110;4.706;2024-01-11T03:24:09;-4.40;67.90
83146;DHT22;73037;51.110;4.706;2024-01-11T03:26:35;-4.50;68.20
83146;DHT22;73037;51.110;4.706;2024-01-11T03:29:00;-4.60;68.30
83146;DHT22;73037;51.110;4.706;2024-01-11T03:31:26;-4.60;68.30
83146;DHT22;73037;51.110;4.706;2024-01-11T03:33:51;-4.60;67.90
83146;DHT22;73037;51.110;4.706;2024-01-11T03:36:17;-4.60;68.10
83146;DHT22;73037;51.110;4.706;2024-01-11T03:38:43;-4.60;68.40
83146;DHT22;73037;51.110;4.706;2024-01-11T03:41:09;-4.60;68.10
83146;DHT22;73037;51.110;4.706;2024-01-11T03:43:37;-4.60;68.00
83146;DHT22;73037;51.110;4.706;2024-01-11T03:46:04;-4.40;67.90
83146;DHT22;73037;51.110;4.706;2024-01-11T03:48:30;-4.40;67.70
83146;DHT22;73037;51.110;4.706;2024-01-11T03:50:56;-4.50;67.70
83146;DHT22;73037;51.110;4.706;2024-01-11T03:53:21;-4.60;68.30
83146;DHT22;73037;51.110;4.706;2024-01-11T03:55:47;-4.60;68.00
83146;DHT22;73037;51.110;4.706;2024-01-11T03:58:13;-4.60;68.00
83146;DHT22;73037;51.110;4.706;2024-01-11T04:00:39;-4.60;68.00
83146;DHT22;73037;51.110;4.706;2024-01-11T04:03:06;-4.60;68.20
83146;DHT22;73037;51.110;4.706;2024-01-11T04:05:32;-4.60;68.00
83146;DHT22;73037;51.110;4.706;2024-01-11T04:07:58;-4.60;68.00
83146;DHT22;73037;51.110;4.706;2024-01-11T04:10:24;-4.60;68.20
83146;DHT22;73037;51.110;4.706;2024-01-11T04:12:49;-4.50;68.50
83146;DHT22;73037;51.110;4.706;2024-01-11T04:15:15;-4.40;68.30
83146;DHT22;73037;51.110;4.706;2024-01-11T04:17:41;-4.40;68.30
83146;DHT22;73037;51.110;4.706;2024-01-11T04:20:07;-4.30;68.00
83146;DHT22;73037;51.110;4.706;2024-01-11T04:22:34;-4.30;67.90
83146;DHT22;73037;51.110;4.706;2024-01-11T04:25:00;-4.30;67.80
83146;DHT22;73037;51.110;4.706;2024-01-11T04:27:26;-4.30;67.60
83146;DHT22;73037;51.110;4.706;2024-01-11T04:29:51;-4.30;67.70
83146;DHT22;73037;51.110;4.706;2024-01-11T04:32:17;-4.30;67.90
83146;DHT22;73037;51.110;4.706;2024-01-11T04:34:43;-4.30;67.90
83146;DHT22;73037;51.110;4.706;2024-01-11T04:37:09;-4.30;67.70
83146;DHT22;73037;51.110;4.706;2024-01-11T04:39:34;-4.30;67.80
83146;DHT22;73037;51.110;4.706;2024-01-11T04:42:00;-4.30;67.70
83146;DHT22;73037;51.110;4.706;2024-01-11T04:44:26;-4.30;67.80
83146;DHT22;73037;51.110;4.706;2024-01-11T04:46:52;-4.20;67.70
83146;DHT22;73037;51.110;4.706;2024-01-11T04:49:18;-4.30;67.50
83146;DHT22;73037;51.110;4.706;2024-01-11T04:51:43;-4.30;67.80
83146;DHT22;73037;51.110;4.706;2024-01-11T04:54:09;-4.30;67.70
83146;DHT22;73037;51.110;4.706;2024-01-11T04:56:34;-4.30;67.50
83146;DHT22;73037;51.110;4.706;2024-01-11T04:59:00;-4.30;67.90
83146;DHT22;73037;51.110;4.706;2024-01-11T05:01:26;-4.30;67.40
83146;DHT22;73037;51.110;4.706;2024-01-11T05:03:51;-4.40;67.60
83146;DHT22;73037;51.110;4.706;2024-01-11T05:06:18;-4.40;67.70
83146;DHT22;73037;51.110;4.706;2024-01-11T05:08:49;-4.40;67.90
83146;DHT22;73037;51.110;4.706;2024-01-11T05:11:16;-4.40;67.90
83146;DHT22;73037;51.110;4.706;2024-01-11T05:13:42;-4.40;67.70
83146;DHT22;73037;51.110;4.706;2024-01-11T05:16:37;-4.40;67.70
83146;DHT22;73037;51.110;4.706;2024-01-11T05:19:02;-4.50;67.70
83146;DHT22;73037;51.110;4.706;2024-01-11T05:21:27;-4.60;67.90
83146;DHT22;73037;51.110;4.706;2024-01-11T05:23:53;-4.60;68.10
83146;DHT22;73037;51.110;4.706;2024-01-11T05:26:19;-4.60;68.20
83146;DHT22;73037;51.110;4.706;2024-01-11T05:28:45;-4.60;68.30
83146;DHT22;73037;51.110;4.706;2024-01-11T05:31:13;-4.60;68.20
83146;DHT22;73037;51.110;4.706;2024-01-11T05:33:40;-4.60;67.90
83146;DHT22;73037;51.110;4.706;2024-01-11T05:36:06;-4.60;68.10
83146;DHT22;73037;51.110;4.706;2024-01-11T05:38:33;-4.60;68.40
83146;DHT22;73037;51.110;4.706;2024-01-11T05:40:59;-4.60;68.00
83146;DHT22;73037;51.110;4.706;2024-01-11T05:43:25;-4.60;68.20
83146;DHT22;73037;51.110;4.706;2024-01-11T05:45:51;-4.60;68.20
83146;DHT22;73037;51.110;4.706;2024-01-11T05:48:17;-4.50;68.00
83146;DHT22;73037;51.110;4.706;2024-01-11T05:50:43;-4.60;68.30
83146;DHT22;73037;51.110;4.706;2024-01-11T05:53:10;-4.50;68.30
83146;DHT22;73037;51.110;4.706;2024-01-11T05:55:36;-4.40;68.40
83146;DHT22;73037;51.110;4.706;2024-01-11T05:58:03;-4.40;67.90
83146;DHT22;73037;51.110;4.706;2024-01-11T06:00:28;-4.40;67.90
83146;DHT22;73037;51.110;4.706;2024-01-11T06:02:54;-4.40;68.00
83146;DHT22;73037;51.110;4.706;2024-01-11T06:05:20;-4.40;68.00
83146;DHT22;73037;51.110;4.706;2024-01-11T06:07:46;-4.50;67.90
83146;DHT22;73037;51.110;4.706;2024-01-11T06:10:14;-4.60;67.80
83146;DHT22;73037;51.110;4.706;2024-01-11T06:12:40;-4.60;68.10
83146;DHT22;73037;51.110;4.706;2024-01-11T06:15:07;-4.60;68.10
83146;DHT22;73037;51.110;4.706;2024-01-11T06:17:33;-4.60;68.20
83146;DHT22;73037;51.110;4.706;2024-01-11T06:19:58;-4.60;68.10
83146;DHT22;73037;51.110;4.706;2024-01-11T06:22:24;-4.60;68.40
83146;DHT22;73037;51.110;4.706;2024-01-11T06:24:50;-4.60;68.40
83146;DHT22;73037;51.110;4.706;2024-01-11T06:27:15;-4.60;68.00
83146;DHT22;73037;51.110;4.706;2024-01-11T06:29:41;-4.70;67.60
83146;DHT22;73037;51.110;4.706;2024-01-11T06:32:07;-4.60;68.30
83146;DHT22;73037;51.110;4.706;2024-01-11T06:34:34;-4.60;68.00
83146;DHT22;73037;51.110;4.706;2024-01-11T06:37:01;-4.60;68.00
83146;DHT22;73037;51.110;4.706;2024-01-11T06:39:28;-4.60;68.10
83146;DHT22;73037;51.110;4.706;2024-01-11T06:41:55;-4.60;68.00
83146;DHT22;73037;51.110;4.706;2024-01-11T06:44:21;-4.60;68.00
83146;DHT22;73037;51.110;4.706;2024-01-11T06:46:47;-4.60;68.20
83146;DHT22;73037;51.110;4.706;2024-01-11T06:49:12;-4.70;68.30
83146;DHT22;73037;51.110;4.706;2024-01-11T06:51:38;-4.80;68.30
83146;DHT22;73037;51.110;4.706;2024-01-11T06:54:04;-4.80;68.40
83146;DHT22;73037;51.110;4.706;2024-01-11T06:56:30;-4.80;68.20
83146;DHT22;73037;51.110;4.706;2024-01-11T06:58:56;-4.90;68.40
83146;DHT22;73037;51.110;4.706;2024-01-11T07:01:22;-4.90;68.50
83146;DHT22;73037;51.110;4.706;2024-01-11T07:03:48;-4.90;68.50
83146;DHT22;73037;51.110;4.706;2024-01-11T07:06:15;-4.90;68.50
83146;DHT22;73037;51.110;4.706;2024-01-11T07:08:40;-4.90;68.10
83146;DHT22;73037;51.110;4.706;2024-01-11T07:11:06;-5.00;68.60
83146;DHT22;73037;51.110;4.706;2024-01-11T07:13:33;-5.00;68.70
83146;DHT22;73037;51.110;4.706;2024-01-11T07:15:59;-5.00;68.90
83146;DHT22;73037;51.110;4.706;2024-01-11T07:18:25;-5.00;68.80
83146;DHT22;73037;51.110;4.706;2024-01-11T07:20:52;-5.10;68.50
83146;DHT22;73037;51.110;4.706;2024-01-11T07:23:18;-5.10;68.70
83146;DHT22;73037;51.110;4.706;2024-01-11T07:25:44;-5.10;68.90
83146;DHT22;73037;51.110;4.706;2024-01-11T07:28:10;-5.10;68.90
83146;DHT22;73037;51.110;4.706;2024-01-11T07:30:36;-5.00;69.20
83146;DHT22;73037;51.110;4.706;2024-01-11T07:33:01;-4.90;69.10
83146;DHT22;73037;51.110;4.706;2024-01-11T07:35:27;-5.00;69.00
83146;DHT22;73037;51.110;4.706;2024-01-11T07:37:53;-4.90;69.30
83146;DHT22;73037;51.110;4.706;2024-01-11T07:40:19;-5.00;68.70
83146;DHT22;73037;51.110;4.706;2024-01-11T07:42:45;-5.10;68.90
83146;DHT22;73037;51.110;4.706;2024-01-11T07:45:11;-5.20;68.60
83146;DHT22;73037;51.110;4.706;2024-01-11T07:47:37;-5.20;69.00
83146;DHT22;73037;51.110;4.706;2024-01-11T07:50:04;-5.20;69.10
83146;DHT22;73037;51.110;4.706;2024-01-11T07:52:32;-5.10;69.00
83146;DHT22;73037;51.110;4.706;2024-01-11T07:54:58;-5.20;68.60
83146;DHT22;73037;51.110;4.706;2024-01-11T07:57:32;-5.20;68.80
83146;DHT22;73037;51.110;4.706;2024-01-11T07:59:58;-5.20;69.00
83146;DHT22;73037;51.110;4.706;2024-01-11T08:02:24;-5.10;69.20
83146;DHT22;73037;51.110;4.706;2024-01-11T08:04:50;-5.00;69.00
83146;DHT22;73037;51.110;4.706;2024-01-11T08:07:16;-4.90;69.20
83146;DHT22;73037;51.110;4.706;2024-01-11T08:09:41;-5.00;68.60
83146;DHT22;73037;51.110;4.706;2024-01-11T08:12:11;-5.00;68.70
83146;DHT22;73037;51.110;4.706;2024-01-11T08:14:37;-5.10;69.10
83146;DHT22;73037;51.110;4.706;2024-01-11T08:17:02;-5.10;69.70
83146;DHT22;73037;51.110;4.706;2024-01-11T08:19:30;-5.00;70.10
83146;DHT22;73037;51.110;4.706;2024-01-11T08:21:56;-4.80;69.50
83146;DHT22;73037;51.110;4.706;2024-01-11T08:24:22;-4.70;70.20
83146;DHT22;73037;51.110;4.706;2024-01-11T08:26:47;-4.60;69.00
83146;DHT22;73037;51.110;4.706;2024-01-11T08:29:13;-4.70;68.80
83146;DHT22;73037;51.110;4.706;2024-01-11T08:31:39;-4.70;69.00
83146;DHT22;73037;51.110;4.706;2024-01-11T08:34:05;-4.60;69.00
83146;DHT22;73037;51.110;4.706;2024-01-11T08:36:32;-4.60;69.00
83146;DHT22;73037;51.110;4.706;2024-01-11T08:39:01;-4.50;68.60
83146;DHT22;73037;51.110;4.706;2024-01-11T08:41:28;-4.50;68.60
83146;DHT22;73037;51.110;4.706;2024-01-11T08:43:53;-4.50;68.60
83146;DHT22;73037;51.110;4.706;2024-01-11T08:46:26;-4.50;68.60
83146;DHT22;73037;51.110;4.706;2024-01-11T08:48:54;-4.40;68.60
83146;DHT22;73037;51.110;4.706;2024-01-11T08:51:22;-4.40;68.60
83146;DHT22;73037;51.110;4.706;2024-01-11T08:53:48;-4.30;68.50
83146;DHT22;73037;51.110;4.706;2024-01-11T08:56:13;-4.20;68.60
83146;DHT22;73037;51.110;4.706;2024-01-11T08:58:41;-4.10;68.50
83146;DHT22;73037;51.110;4.706;2024-01-11T09:01:07;-4.10;68.20
83146;DHT22;73037;51.110;4.706;2024-01-11T09:03:34;-4.00;68.10
83146;DHT22;73037;51.110;4.706;2024-01-11T09:06:01;-4.00;67.90
83146;DHT22;73037;51.110;4.706;2024-01-11T09:08:27;-4.00;67.90
83146;DHT22;73037;51.110;4.706;2024-01-11T09:10:53;-3.80;67.70
83146;DHT22;73037;51.110;4.706;2024-01-11T09:13:19;-3.80;67.50
83146;DHT22;73037;51.110;4.706;2024-01-11T09:15:45;-3.70;67.00
83146;DHT22;73037;51.110;4.706;2024-01-11T09:18:10;-3.70;67.20
83146;DHT22;73037;51.110;4.706;2024-01-11T09:20:36;-3.70;67.10
83146;DHT22;73037;51.110;4.706;2024-01-11T09:23:02;-3.70;67.40
83146;DHT22;73037;51.110;4.706;2024-01-11T09:25:32;-3.60;67.50
83146;DHT22;73037;51.110;4.706;2024-01-11T09:27:59;-3.60;67.10
83146;DHT22;73037;51.110;4.706;2024-01-11T09:30:25;-3.60;67.20
83146;DHT22;73037;51.110;4.706;2024-01-11T09:32:50;-3.60;67.00
83146;DHT22;73037;51.110;4.706;2024-01-11T09:35:16;-3.50;66.70
83146;DHT22;73037;51.110;4.706;2024-01-11T09:37:42;-3.50;66.80
83146;DHT22;73037;51.110;4.706;2024-01-11T09:40:12;-3.50;67.10
83146;DHT22;73037;51.110;4.706;2024-01-11T09:42:38;-3.40;67.20
83146;DHT22;73037;51.110;4.706;2024-01-11T09:45:09;-3.30;66.60
83146;DHT22;73037;51.110;4.706;2024-01-11T09:47:36;-3.30;66.50
83146;DHT22;73037;51.110;4.706;2024-01-11T09:50:06;-3.20;66.80
83146;DHT22;73037;51.110;4.706;2024-01-11T09:52:31;-3.20;66.50
83146;DHT22;73037;51.110;4.706;2024-01-11T09:55:01;-3.10;66.30
83146;DHT22;73037;51.110;4.706;2024-01-11T09:57:31;-3.10;66.40
83146;DHT22;73037;51.110;4.706;2024-01-11T09:59:58;-3.10;66.00
83146;DHT22;73037;51.110;4.706;2024-01-11T10:02:25;-3.10;65.90
83146;DHT22;73037;51.110;4.706;2024-01-11T10:04:54;-3.00;65.50
83146;DHT22;73037;51.110;4.706;2024-01-11T10:07:24;-2.90;66.00
83146;DHT22;73037;51.110;4.706;2024-01-11T10:09:50;-2.90;65.80
83146;DHT22;73037;51.110;4.706;2024-01-11T10:12:20;-2.90;65.30
83146;DHT22;73037;51.110;4.706;2024-01-11T10:14:49;-2.80;65.30
83146;DHT22;73037;51.110;4.706;2024-01-11T10:17:14;-2.80;65.70
83146;DHT22;73037;51.110;4.706;2024-01-11T10:19:40;-2.80;65.60
83146;DHT22;73037;51.110;4.706;2024-01-11T10:22:06;-2.70;65.40
83146;DHT22;73037;51.110;4.706;2024-01-11T10:24:32;-2.60;65.30
83146;DHT22;73037;51.110;4.706;2024-01-11T10:26:58;-2.50;65.00
83146;DHT22;73037;51.110;4.706;2024-01-11T10:29:36;-2.50;65.10
83146;DHT22;73037;51.110;4.706;2024-01-11T10:32:03;-2.50;64.60
83146;DHT22;73037;51.110;4.706;2024-01-11T10:34:29;-2.40;64.70
83146;DHT22;73037;51.110;4.706;2024-01-11T10:36:56;-2.30;64.40
83146;DHT22;73037;51.110;4.706;2024-01-11T10:39:25;-2.30;64.70
83146;DHT22;73037;51.110;4.706;2024-01-11T10:41:54;-2.20;64.30
83146;DHT22;73037;51.110;4.706;2024-01-11T10:44:22;-2.20;64.60
83146;DHT22;73037;51.110;4.706;2024-01-11T10:46:49;-2.20;65.10
83146;DHT22;73037;51.110;4.706;2024-01-11T10:49:19;-2.10;64.40
83146;DHT22;73037;51.110;4.706;2024-01-11T10:52:02;-2.10;64.80
83146;DHT22;73037;51.110;4.706;2024-01-11T10:54:31;-2.10;64.20
83146;DHT22;73037;51.110;4.706;2024-01-11T10:57:00;-2.20;64.40
83146;DHT22;73037;51.110;4.706;2024-01-11T10:59:27;-2.20;64.60
83146;DHT22;73037;51.110;4.706;2024-01-11T11:01:53;-2.10;65.00
83146;DHT22;73037;51.110;4.706;2024-01-11T11:04:25;-2.10;64.40
83146;DHT22;73037;51.110;4.706;2024-01-11T11:06:52;-2.10;64.40
83146;DHT22;73037;51.110;4.706;2024-01-11T11:09:20;-2.10;63.70
83146;DHT22;73037;51.110;4.706;2024-01-11T11:11:47;-2.10;63.60
83146;DHT22;73037;51.110;4.706;2024-01-11T11:14:15;-2.00;64.00
83146;DHT22;73037;51.110;4.706;2024-01-11T11:16:41;-1.80;64.40
83146;DHT22;73037;51.110;4.706;2024-01-11T11:19:07;-1.80;64.10
83146;DHT22;73037;51.110;4.706;2024-01-11T11:21:42;-1.70;64.50
83146;DHT22;73037;51.110;4.706;2024-01-11T11:24:08;-1.60;63.60
83146;DHT22;73037;51.110;4.706;2024-01-11T11:26:34;-1.50;63.20
83146;DHT22;73037;51.110;4.706;2024-01-11T11:29:00;-1.50;63.20
83146;DHT22;73037;51.110;4.706;2024-01-11T11:31:36;-1.50;62.70
83146;DHT22;73037;51.110;4.706;2024-01-11T11:34:05;-1.50;63.00
83146;DHT22;73037;51.110;4.706;2024-01-11T11:36:33;-1.40;63.30
83146;DHT22;73037;51.110;4.706;2024-01-11T11:39:01;-1.30;63.30
83146;DHT22;73037;51.110;4.706;2024-01-11T11:41:27;-1.30;63.30
83146;DHT22;73037;51.110;4.706;2024-01-11T11:43:53;-1.20;63.90
83146;DHT22;73037;51.110;4.706;2024-01-11T11:46:19;-1.10;63.30
83146;DHT22;73037;51.110;4.706;2024-01-11T11:48:52;-1.10;62.90
83146;DHT22;73037;51.110;4.706;2024-01-11T11:51:18;-1.10;63.00
83146;DHT22;73037;51.110;4.706;2024-01-11T11:53:46;-1.10;62.60
83146;DHT22;73037;51.110;4.706;2024-01-11T11:56:12;-1.00;62.50
83146;DHT22;73037;51.110;4.706;2024-01-11T11:58:40;-1.00;62.50
83146;DHT22;73037;51.110;4.706;2024-01-11T12:01:06;-0.90;62.30
83146;DHT22;73037;51.110;4.706;2024-01-11T12:03:35;-0.90;62.80
83146;DHT22;73037;51.110;4.706;2024-01-11T12:06:06;-0.80;62.10
83146;DHT22;73037;51.110;4.706;2024-01-11T12:08:32;-0.70;62.00
83146;DHT22;73037;51.110;4.706;2024-01-11T12:10:58;-0.70;61.80
83146;DHT22;73037;51.110;4.706;2024-01-11T12:13:24;-0.70;61.90
83146;DHT22;73037;51.110;4.706;2024-01-11T12:15:50;-0.60;61.90
83146;DHT22;73037;51.110;4.706;2024-01-11T12:18:16;-0.50;61.00
83146;DHT22;73037;51.110;4.706;2024-01-11T12:20:42;-0.50;61.40
83146;DHT22;73037;51.110;4.706;2024-01-11T12:23:07;-0.40;61.20
83146;DHT22;73037;51.110;4.706;2024-01-11T12:25:33;-0.40;61.30
83146;DHT22;73037;51.110;4.706;2024-01-11T12:27:59;-0.30;61.80
83146;DHT22;73037;51.110;4.706;2024-01-11T12:30:26;-0.30;60.80
83146;DHT22;73037;51.110;4.706;2024-01-11T12:32:53;-0.30;60.50
83146;DHT22;73037;51.110;4.706;2024-01-11T12:35:19;-0.30;60.90
83146;DHT22;73037;51.110;4.706;2024-01-11T12:40:21;-0.20;61.00
83146;DHT22;73037;51.110;4.706;2024-01-11T12:42:47;-0.10;60.40
83146;DHT22;73037;51.110;4.706;2024-01-11T12:45:15;-0.10;60.70
83146;DHT22;73037;51.110;4.706;2024-01-11T12:47:41;-0.10;60.40
83146;DHT22;73037;51.110;4.706;2024-01-11T12:50:07;-0.10;59.90
83146;DHT22;73037;51.110;4.706;2024-01-11T12:52:33;0.00;59.60
83146;DHT22;73037;51.110;4.706;2024-01-11T12:54:59;0.00;59.40
83146;DHT22;73037;51.110;4.706;2024-01-11T12:57:25;0.00;59.10
83146;DHT22;73037;51.110;4.706;2024-01-11T12:59:52;0.00;58.50
83146;DHT22;73037;51.110;4.706;2024-01-11T13:02:18;0.00;58.80
83146;DHT22;73037;51.110;4.706;2024-01-11T13:04:45;0.00;58.80
83146;DHT22;73037;51.110;4.706;2024-01-11T13:07:12;0.20;58.60
83146;DHT22;73037;51.110;4.706;2024-01-11T13:09:38;0.20;59.00
83146;DHT22;73037;51.110;4.706;2024-01-11T13:12:04;0.20;58.90
83146;DHT22;73037;51.110;4.706;2024-01-11T13:14:30;0.30;58.90
83146;DHT22;73037;51.110;4.706;2024-01-11T13:16:57;0.30;58.90
83146;DHT22;73037;51.110;4.706;2024-01-11T13:19:23;0.30;59.00
83146;DHT22;73037;51.110;4.706;2024-01-11T13:21:49;0.30;58.70
83146;DHT22;73037;51.110;4.706;2024-01-11T13:24:14;0.20;58.00
83146;DHT22;73037;51.110;4.706;2024-01-11T13:26:40;0.20;57.80
83146;DHT22;73037;51.110;4.706;2024-01-11T13:29:06;0.20;58.20
83146;DHT22;73037;51.110;4.706;2024-01-11T13:31:32;0.20;57.90
83146;DHT22;73037;51.110;4.706;2024-01-11T13:33:59;0.20;58.00
83146;DHT22;73037;51.110;4.706;2024-01-11T13:36:25;0.30;58.20
83146;DHT22;73037;51.110;4.706;2024-01-11T13:38:51;0.30;58.50
83146;DHT22;73037;51.110;4.706;2024-01-11T13:41:17;0.20;57.40
83146;DHT22;73037;51.110;4.706;2024-01-11T13:43:43;0.20;57.80
83146;DHT22;73037;51.110;4.706;2024-01-11T13:46:09;0.20;57.90
83146;DHT22;73037;51.110;4.706;2024-01-11T13:48:35;0.20;58.20
83146;DHT22;73037;51.110;4.706;2024-01-11T13:51:01;0.20;58.10
83146;DHT22;73037;51.110;4.706;2024-01-11T13:53:29;0.20;57.60
83146;DHT22;73037;51.110;4.706;2024-01-11T13:55:55;0.20;57.10
83146;DHT22;73037;51.110;4.706;2024-01-11T13:58:21;0.20;56.90
83146;DHT22;73037;51.110;4.706;2024-01-11T14:00:47;0.30;56.80
83146;DHT22;73037;51.110;4.706;2024-01-11T14:03:13;0.20;56.50
83146;DHT22;73037;51.110;4.706;2024-01-11T14:05:38;0.30;56.10
83146;DHT22;73037;51.110;4.706;2024-01-11T14:08:04;0.30;56.50
83146;DHT22;73037;51.110;4.706;2024-01-11T14:10:34;0.30;56.00
83146;DHT22;73037;51.110;4.706;2024-01-11T14:13:01;0.40;56.00
83146;DHT22;73037;51.110;4.706;2024-01-11T14:15:27;0.40;56.20
83146;DHT22;73037;51.110;4.706;2024-01-11T14:17:53;0.40;56.10
83146;DHT22;73037;51.110;4.706;2024-01-11T14:20:18;0.40;56.60
83146;DHT22;73037;51.110;4.706;2024-01-11T14:22:45;0.40;57.00
83146;DHT22;73037;51.110;4.706;2024-01-11T14:25:21;0.40;56.90
83146;DHT22;73037;51.110;4.706;2024-01-11T14:27:50;0.40;56.00
83146;DHT22;73037;51.110;4.706;2024-01-11T14:30:16;0.30;56.50
83146;DHT22;73037;51.110;4.706;2024-01-11T14:32:42;0.40;56.60
83146;DHT22;73037;51.110;4.706;2024-01-11T14:35:09;0.30;57.20
83146;DHT22;73037;51.110;4.706;2024-01-11T14:37:36;0.30;57.70
83146;DHT22;73037;51.110;4.706;2024-01-11T14:40:06;0.30;58.30
83146;DHT22;73037;51.110;4.706;2024-01-11T14:42:32;0.30;59.20
83146;DHT22;73037;51.110;4.706;2024-01-11T14:44:58;0.30;60.30
83146;DHT22;73037;51.110;4.706;2024-01-11T14:47:24;0.30;60.70
83146;DHT22;73037;51.110;4.706;2024-01-11T14:49:51;0.30;61.60
83146;DHT22;73037;51.110;4.706;2024-01-11T14:52:17;0.20;61.80
83146;DHT22;73037;51.110;4.706;2024-01-11T14:54:44;0.30;62.50
83146;DHT22;73037;51.110;4.706;2024-01-11T14:57:10;0.20;62.80
83146;DHT22;73037;51.110;4.706;2024-01-11T14:59:36;0.20;63.70
83146;DHT22;73037;51.110;4.706;2024-01-11T15:02:02;0.20;64.80
83146;DHT22;73037;51.110;4.706;2024-01-11T15:04:28;0.20;65.30
83146;DHT22;73037;51.110;4.706;2024-01-11T15:06:53;0.00;67.30
83146;DHT22;73037;51.110;4.706;2024-01-11T15:09:19;0.00;68.40
83146;DHT22;73037;51.110;4.706;2024-01-11T15:11:45;-0.10;69.00
83146;DHT22;73037;51.110;4.706;2024-01-11T15:14:11;-0.10;69.40
83146;DHT22;73037;51.110;4.706;2024-01-11T15:16:37;-0.10;69.90
83146;DHT22;73037;51.110;4.706;2024-01-11T15:19:04;-0.10;69.90
83146;DHT22;73037;51.110;4.706;2024-01-11T15:21:30;-0.10;70.10
83146;DHT22;73037;51.110;4.706;2024-01-11T15:23:56;0.00;70.30
83146;DHT22;73037;51.110;4.706;2024-01-11T15:26:24;0.00;70.50
83146;DHT22;73037;51.110;4.706;2024-01-11T15:28:50;0.20;70.50
83146;DHT22;73037;51.110;4.706;2024-01-11T15:31:16;0.20;70.70